Check out our new BloomSky Weather System.

Active alerts


No alerts


Thunder radar  blitzortung!


Rain radar more information rain snow radar


Visit our other weather sites:

Template documentation
and downloads

And another site



Weather Underground History page Text

Daily Summary for January 10, 2017 Units:  English    Metric   Both
« Previous Day
Next Day »
Daily Weekly Monthly Yearly Custom
  High: Low: Average:
Temperature: 78.3 °F 62.4 °F 69.3 °F
Dew Point: 66.7 °F 58.5 °F 63.9 °F
Humidity: 93 % 65 % 84 %
Wind Speed: 25.0 mph 1.0 mph 5.4 mph
Wind Gust: 25.0 mph - -
Wind:- - South
Pressure: 30.16 in 30.00 in -
Precipitation: 0.00 in    
Historical Graphs
 
 
Tabular Data for January 10, 2017
Time Temperature Dew Point Pressure Wind Wind Speed Wind Gust Humidity Rainfall Rate (Hourly)
00:03 62.4 °F 58.5 °F 30.16 in ESE 4.0 mph 8.0 mph 87 % 0.00 in
00:08 62.4 °F 58.5 °F 30.15 in SE 2.0 mph 8.0 mph 87 % 0.00 in
00:13 62.6 °F 58.6 °F 30.15 in SE 3.0 mph 8.0 mph 87 % 0.00 in
00:18 62.8 °F 58.8 °F 30.15 in SE 5.0 mph 10.0 mph 87 % 0.00 in
00:23 62.8 °F 58.8 °F 30.14 in South 3.0 mph 10.0 mph 87 % 0.00 in
00:28 62.8 °F 58.8 °F 30.14 in ESE 4.0 mph 10.0 mph 87 % 0.00 in
00:33 62.8 °F 58.8 °F 30.14 in SW 8.0 mph 8.0 mph 87 % 0.00 in
00:38 62.8 °F 59.2 °F 30.14 in SW 7.0 mph 9.0 mph 88 % 0.00 in
00:43 63.0 °F 59.4 °F 30.14 in SSW 4.0 mph 9.0 mph 88 % 0.00 in
00:48 63.0 °F 59.4 °F 30.14 in SE 3.0 mph 10.0 mph 88 % 0.00 in
00:53 63.0 °F 59.4 °F 30.14 in SSE 3.0 mph 10.0 mph 88 % 0.00 in
00:58 63.1 °F 59.5 °F 30.14 in SSE 3.0 mph 10.0 mph 88 % 0.00 in
01:03 63.1 °F 59.5 °F 30.14 in SSE 5.0 mph 10.0 mph 88 % 0.00 in
01:08 63.3 °F 59.7 °F 30.14 in SSE 6.0 mph 11.0 mph 88 % 0.00 in
01:13 63.5 °F 59.9 °F 30.14 in SE 6.0 mph 11.0 mph 88 % 0.00 in
01:18 63.7 °F 60.1 °F 30.14 in SSE 8.0 mph 13.0 mph 88 % 0.00 in
01:23 63.7 °F 59.7 °F 30.14 in SE 9.0 mph 13.0 mph 87 % 0.00 in
01:28 63.9 °F 59.9 °F 30.14 in South 3.0 mph 13.0 mph 87 % 0.00 in
01:33 63.7 °F 59.7 °F 30.14 in SSW 7.0 mph 12.0 mph 87 % 0.00 in
01:38 63.9 °F 59.9 °F 30.14 in SSW 6.0 mph 12.0 mph 87 % 0.00 in
01:43 63.7 °F 60.1 °F 30.14 in SSE 4.0 mph 12.0 mph 88 % 0.00 in
01:48 63.7 °F 60.1 °F 30.13 in South 7.0 mph 12.0 mph 88 % 0.00 in
01:53 63.7 °F 60.1 °F 30.13 in SSE 5.0 mph 14.0 mph 88 % 0.00 in
01:59 63.7 °F 60.1 °F 30.13 in SSE 8.0 mph 14.0 mph 88 % 0.00 in
02:04 63.7 °F 60.1 °F 30.13 in South 8.0 mph 16.0 mph 88 % 0.00 in
02:09 63.7 °F 60.1 °F 30.13 in South 4.0 mph 16.0 mph 88 % 0.00 in
02:14 63.7 °F 60.1 °F 30.12 in SSE 5.0 mph 16.0 mph 88 % 0.00 in
02:19 63.5 °F 59.9 °F 30.12 in SSW 6.0 mph 13.0 mph 88 % 0.00 in
02:24 63.3 °F 59.7 °F 30.12 in SSE 3.0 mph 13.0 mph 88 % 0.00 in
02:29 63.3 °F 60.1 °F 30.12 in SSE 6.0 mph 13.0 mph 89 % 0.00 in
02:34 63.3 °F 60.1 °F 30.12 in South 4.0 mph 11.0 mph 89 % 0.00 in
02:39 63.5 °F 60.3 °F 30.12 in South 4.0 mph 11.0 mph 89 % 0.00 in
02:44 63.7 °F 60.4 °F 30.12 in South 8.0 mph 11.0 mph 89 % 0.00 in
02:49 63.7 °F 60.4 °F 30.12 in SSE 4.0 mph 10.0 mph 89 % 0.00 in
02:54 63.9 °F 60.3 °F 30.12 in SSE 5.0 mph 12.0 mph 88 % 0.00 in
02:59 63.7 °F 60.1 °F 30.12 in SSE 4.0 mph 12.0 mph 88 % 0.00 in
03:04 63.7 °F 60.1 °F 30.11 in South 7.0 mph 12.0 mph 88 % 0.00 in
03:09 63.5 °F 60.3 °F 30.11 in South 5.0 mph 9.0 mph 89 % 0.00 in
03:14 63.3 °F 60.1 °F 30.11 in SSE 6.0 mph 9.0 mph 89 % 0.00 in
03:19 63.1 °F 59.9 °F 30.11 in SSE 6.0 mph 10.0 mph 89 % 0.00 in
03:24 63.1 °F 59.9 °F 30.10 in SE 4.0 mph 11.0 mph 89 % 0.00 in
03:29 63.1 °F 59.9 °F 30.10 in SSE 4.0 mph 11.0 mph 89 % 0.00 in
03:34 63.0 °F 59.9 °F 30.10 in South 5.0 mph 11.0 mph 90 % 0.00 in
03:39 62.8 °F 59.7 °F 30.10 in SSE 5.0 mph 11.0 mph 90 % 0.00 in
03:44 62.8 °F 59.7 °F 30.09 in SSE 4.0 mph 8.0 mph 90 % 0.00 in
03:49 62.6 °F 59.9 °F 30.09 in SSW 6.0 mph 8.0 mph 91 % 0.00 in
03:54 62.6 °F 59.9 °F 30.09 in SE 3.0 mph 10.0 mph 91 % 0.00 in
03:59 62.4 °F 59.7 °F 30.08 in SSE 6.0 mph 10.0 mph 91 % 0.00 in
04:04 62.4 °F 59.7 °F 30.08 in South 7.0 mph 10.0 mph 91 % 0.00 in
04:09 62.4 °F 59.7 °F 30.08 in SSE 6.0 mph 10.0 mph 91 % 0.00 in
04:14 62.4 °F 59.7 °F 30.07 in SSE 5.0 mph 10.0 mph 91 % 0.00 in
04:19 62.6 °F 60.3 °F 30.07 in SE 9.0 mph 10.0 mph 92 % 0.00 in
04:24 62.6 °F 60.3 °F 30.07 in South 4.0 mph 10.0 mph 92 % 0.00 in
04:29 62.6 °F 60.3 °F 30.06 in South 5.0 mph 10.0 mph 92 % 0.00 in
04:34 62.8 °F 60.4 °F 30.07 in South 9.0 mph 10.0 mph 92 % 0.00 in
04:39 62.8 °F 60.4 °F 30.07 in SSE 4.0 mph 11.0 mph 92 % 0.00 in
04:44 63.0 °F 60.6 °F 30.07 in SSE 3.0 mph 11.0 mph 92 % 0.00 in
04:49 63.0 °F 60.6 °F 30.07 in SSE 3.0 mph 11.0 mph 92 % 0.00 in
04:54 63.0 °F 60.6 °F 30.07 in South 3.0 mph 10.0 mph 92 % 0.00 in
04:59 63.0 °F 60.6 °F 30.07 in SSW 2.0 mph 8.0 mph 92 % 0.00 in
05:04 63.0 °F 60.6 °F 30.06 in SSE 3.0 mph 8.0 mph 92 % 0.00 in
05:09 63.0 °F 60.6 °F 30.06 in South 8.0 mph 9.0 mph 92 % 0.00 in
05:14 63.0 °F 60.6 °F 30.06 in ESE 5.0 mph 9.0 mph 92 % 0.00 in
05:19 63.0 °F 60.6 °F 30.06 in SE 5.0 mph 10.0 mph 92 % 0.00 in
05:24 63.0 °F 60.6 °F 30.06 in South 5.0 mph 10.0 mph 92 % 0.00 in
05:29 63.0 °F 60.6 °F 30.06 in SSE 2.0 mph 10.0 mph 92 % 0.00 in
05:34 63.0 °F 60.6 °F 30.06 in SE 4.0 mph 9.0 mph 92 % 0.00 in
05:39 63.0 °F 60.6 °F 30.06 in ESE 7.0 mph 10.0 mph 92 % 0.00 in
05:44 63.1 °F 60.8 °F 30.06 in SSE 4.0 mph 11.0 mph 92 % 0.00 in
05:49 63.1 °F 61.2 °F 30.06 in SE 4.0 mph 11.0 mph 93 % 0.00 in
05:55 63.3 °F 61.0 °F 30.05 in SSE 3.0 mph 11.0 mph 92 % 0.00 in
06:00 63.3 °F 61.0 °F 30.04 in SE 8.0 mph 9.0 mph 92 % 0.00 in
06:05 63.3 °F 61.0 °F 30.04 in South 5.0 mph 10.0 mph 92 % 0.00 in
06:10 63.3 °F 61.0 °F 30.03 in SSE 4.0 mph 11.0 mph 92 % 0.00 in
06:15 63.3 °F 61.0 °F 30.03 in SE 6.0 mph 11.0 mph 92 % 0.00 in
06:20 63.3 °F 61.0 °F 30.02 in SSE 5.0 mph 11.0 mph 92 % 0.00 in
06:25 63.7 °F 61.7 °F 30.02 in SSE 4.0 mph 11.0 mph 93 % 0.00 in
06:30 63.7 °F 61.7 °F 30.03 in SW 5.0 mph 13.0 mph 93 % 0.00 in
06:35 63.9 °F 61.9 °F 30.04 in South 5.0 mph 13.0 mph 93 % 0.00 in
06:40 64.0 °F 61.7 °F 30.04 in South 7.0 mph 13.0 mph 92 % 0.00 in
06:45 64.0 °F 61.7 °F 30.03 in ESE 7.0 mph 13.0 mph 92 % 0.00 in
06:50 64.2 °F 61.9 °F 30.03 in South 5.0 mph 13.0 mph 92 % 0.00 in
06:55 64.2 °F 61.9 °F 30.02 in SSE 6.0 mph 11.0 mph 92 % 0.00 in
07:00 64.6 °F 62.2 °F 30.02 in WSW 6.0 mph 11.0 mph 92 % 0.00 in
07:05 64.8 °F 62.4 °F 30.02 in SSE 9.0 mph 13.0 mph 92 % 0.00 in
07:10 64.9 °F 62.6 °F 30.04 in South 7.0 mph 18.0 mph 92 % 0.00 in
07:15 65.1 °F 62.8 °F 30.06 in SE 3.0 mph 18.0 mph 92 % 0.00 in
07:20 65.1 °F 62.8 °F 30.06 in SSE 3.0 mph 13.0 mph 92 % 0.00 in
07:25 65.5 °F 63.1 °F 30.07 in South 6.0 mph 11.0 mph 92 % 0.00 in
07:30 65.7 °F 63.3 °F 30.08 in SSE 1.0 mph 11.0 mph 92 % 0.00 in
07:35 65.7 °F 63.3 °F 30.09 in SSW 3.0 mph 9.0 mph 92 % 0.00 in
07:40 65.8 °F 63.5 °F 30.10 in South 2.0 mph 8.0 mph 92 % 0.00 in
07:45 66.0 °F 63.7 °F 30.09 in South 6.0 mph 9.0 mph 92 % 0.00 in
07:50 66.2 °F 63.5 °F 30.08 in SSW 7.0 mph 10.0 mph 91 % 0.00 in
07:55 66.4 °F 63.7 °F 30.08 in SSE 4.0 mph 10.0 mph 91 % 0.00 in
08:00 66.4 °F 63.7 °F 30.08 in SSE 3.0 mph 10.0 mph 91 % 0.00 in
08:05 66.4 °F 63.7 °F 30.09 in SSE 3.0 mph 10.0 mph 91 % 0.00 in
08:10 66.4 °F 63.7 °F 30.09 in South 3.0 mph 7.0 mph 91 % 0.00 in
08:15 66.4 °F 64.0 °F 30.09 in SSE 3.0 mph 8.0 mph 92 % 0.00 in
08:20 66.6 °F 63.9 °F 30.09 in SSE 2.0 mph 10.0 mph 91 % 0.00 in
08:25 66.6 °F 63.9 °F 30.08 in SSE 4.0 mph 10.0 mph 91 % 0.00 in
08:30 66.7 °F 64.0 °F 30.09 in SSE 2.0 mph 10.0 mph 91 % 0.00 in
08:35 66.7 °F 64.0 °F 30.09 in SSE 2.0 mph 9.0 mph 91 % 0.00 in
08:40 66.9 °F 64.2 °F 30.08 in SSW 6.0 mph 9.0 mph 91 % 0.00 in
08:45 66.9 °F 64.2 °F 30.08 in SE 3.0 mph 9.0 mph 91 % 0.00 in
08:50 67.1 °F 64.4 °F 30.09 in SSE 4.0 mph 9.0 mph 91 % 0.00 in
08:55 67.3 °F 64.6 °F 30.09 in SSW 7.0 mph 9.0 mph 91 % 0.00 in
09:00 67.6 °F 64.9 °F 30.09 in SSE 1.0 mph 9.0 mph 91 % 0.00 in
09:05 67.6 °F 64.9 °F 30.10 in SSW 3.0 mph 8.0 mph 91 % 0.00 in
09:10 67.8 °F 64.8 °F 30.10 in South 4.0 mph 7.0 mph 90 % 0.00 in
09:15 67.8 °F 64.8 °F 30.10 in SW 2.0 mph 9.0 mph 90 % 0.00 in
09:20 68.2 °F 65.1 °F 30.10 in SE 5.0 mph 9.0 mph 90 % 0.00 in
09:25 68.4 °F 65.3 °F 30.10 in SE 6.0 mph 9.0 mph 90 % 0.00 in
09:30 68.5 °F 65.5 °F 30.11 in South 3.0 mph 8.0 mph 90 % 0.00 in
09:35 69.1 °F 65.7 °F 30.10 in SE 5.0 mph 10.0 mph 89 % 0.00 in
09:40 69.3 °F 65.8 °F 30.11 in SSE 4.0 mph 10.0 mph 89 % 0.00 in
09:45 69.4 °F 65.7 °F 30.11 in South 3.0 mph 10.0 mph 88 % 0.00 in
09:50 69.4 °F 65.7 °F 30.11 in SSW 4.0 mph 13.0 mph 88 % 0.00 in
09:55 69.6 °F 65.8 °F 30.11 in SSE 5.0 mph 13.0 mph 88 % 0.00 in
10:00 69.6 °F 65.8 °F 30.12 in South 6.0 mph 13.0 mph 88 % 0.00 in
10:05 69.8 °F 66.0 °F 30.11 in South 3.0 mph 13.0 mph 88 % 0.00 in
10:10 70.2 °F 66.0 °F 30.11 in South 7.0 mph 13.0 mph 87 % 0.00 in
10:15 70.3 °F 66.2 °F 30.11 in SSE 6.0 mph 17.0 mph 87 % 0.00 in
10:20 70.7 °F 66.4 °F 30.11 in South 8.0 mph 17.0 mph 86 % 0.00 in
10:25 70.9 °F 66.6 °F 30.12 in SSE 4.0 mph 17.0 mph 86 % 0.00 in
10:30 70.9 °F 66.2 °F 30.12 in SW 6.0 mph 14.0 mph 85 % 0.00 in
10:35 70.9 °F 66.2 °F 30.12 in SSW 4.0 mph 14.0 mph 85 % 0.00 in
10:40 70.9 °F 66.2 °F 30.12 in SSW 8.0 mph 14.0 mph 85 % 0.00 in
10:45 71.1 °F 66.4 °F 30.12 in SSW 5.0 mph 14.0 mph 85 % 0.00 in
10:50 71.4 °F 66.4 °F 30.12 in South 9.0 mph 14.0 mph 84 % 0.00 in
10:55 71.8 °F 66.7 °F 30.12 in SE 7.0 mph 13.0 mph 84 % 0.00 in
11:00 72.1 °F 66.7 °F 30.12 in South 6.0 mph 16.0 mph 83 % 0.00 in
11:05 72.3 °F 66.6 °F 30.11 in SSW 7.0 mph 16.0 mph 82 % 0.00 in
11:11 72.7 °F 66.6 °F 30.10 in SSE 4.0 mph 16.0 mph 81 % 0.00 in
11:16 73.0 °F 66.6 °F 30.10 in SSE 7.0 mph 15.0 mph 80 % 0.00 in
11:21 73.2 °F 66.4 °F 30.10 in SSE 9.0 mph 15.0 mph 79 % 0.00 in
11:26 73.4 °F 65.7 °F 30.09 in South 14.0 mph 18.0 mph 77 % 0.00 in
11:31 73.2 °F 65.7 °F 30.09 in SSW 8.0 mph 18.0 mph 77 % 0.00 in
11:36 73.6 °F 65.8 °F 30.09 in South 12.0 mph 18.0 mph 77 % 0.00 in
11:41 73.8 °F 66.0 °F 30.08 in SSW 6.0 mph 16.0 mph 77 % 0.00 in
11:46 74.1 °F 66.0 °F 30.09 in SSE 9.0 mph 16.0 mph 76 % 0.00 in
11:51 74.1 °F 66.4 °F 30.08 in SSW 5.0 mph 16.0 mph 77 % 0.00 in
11:56 74.5 °F 66.4 °F 30.08 in South 8.0 mph 15.0 mph 76 % 0.00 in
12:01 74.8 °F 66.7 °F 30.07 in SSE 5.0 mph 15.0 mph 76 % 0.00 in
12:06 75.0 °F 66.6 °F 30.07 in ESE 12.0 mph 15.0 mph 75 % 0.00 in
12:11 75.6 °F 66.7 °F 30.07 in SW 4.0 mph 15.0 mph 74 % 0.00 in
12:16 75.9 °F 66.2 °F 30.07 in SW 8.0 mph 15.0 mph 72 % 0.00 in
12:21 75.9 °F 65.8 °F 30.06 in SSW 4.0 mph 14.0 mph 71 % 0.00 in
12:26 75.7 °F 65.7 °F 30.06 in SSW 15.0 mph 15.0 mph 71 % 0.00 in
12:31 75.7 °F 66.0 °F 30.06 in SW 6.0 mph 17.0 mph 72 % 0.00 in
12:36 75.7 °F 65.7 °F 30.06 in SW 8.0 mph 17.0 mph 71 % 0.00 in
12:41 75.6 °F 65.5 °F 30.06 in SSE 8.0 mph 17.0 mph 71 % 0.00 in
12:46 75.7 °F 65.7 °F 30.05 in South 4.0 mph 13.0 mph 71 % 0.00 in
12:51 75.9 °F 65.8 °F 30.05 in SE 6.0 mph 14.0 mph 71 % 0.00 in
12:56 76.3 °F 65.8 °F 30.05 in WSW 11.0 mph 16.0 mph 70 % 0.00 in
13:01 76.8 °F 65.8 °F 30.05 in South 6.0 mph 18.0 mph 69 % 0.00 in
13:06 77.0 °F 65.7 °F 30.05 in SSW 6.0 mph 19.0 mph 68 % 0.00 in
13:11 77.5 °F 66.2 °F 30.04 in SSW 12.0 mph 19.0 mph 68 % 0.00 in
13:16 77.7 °F 66.4 °F 30.04 in SSE 7.0 mph 19.0 mph 68 % 0.00 in
13:21 78.1 °F 66.7 °F 30.04 in South 6.0 mph 17.0 mph 68 % 0.00 in
13:26 77.7 °F 64.9 °F 30.03 in South 25.0 mph 25.0 mph 65 % 0.00 in
13:31 77.4 °F 65.5 °F 30.03 in SSW 4.0 mph 25.0 mph 67 % 0.00 in
13:36 77.0 °F 65.1 °F 30.02 in SW 12.0 mph 25.0 mph 67 % 0.00 in
13:41 77.2 °F 64.9 °F 30.02 in South 5.0 mph 25.0 mph 66 % 0.00 in
13:46 77.4 °F 65.1 °F 30.02 in SSE 10.0 mph 21.0 mph 66 % 0.00 in
13:51 78.3 °F 65.5 °F 30.02 in South 11.0 mph 21.0 mph 65 % 0.00 in
13:56 77.9 °F 65.1 °F 30.01 in SE 9.0 mph 20.0 mph 65 % 0.00 in
14:01 77.4 °F 65.1 °F 30.01 in SSW 20.0 mph 20.0 mph 66 % 0.00 in
14:06 77.2 °F 64.9 °F 30.01 in SSW 9.0 mph 22.0 mph 66 % 0.00 in
14:11 77.2 °F 65.3 °F 30.01 in SSW 4.0 mph 22.0 mph 67 % 0.00 in
14:16 77.4 °F 65.5 °F 30.01 in SSW 4.0 mph 22.0 mph 67 % 0.00 in
14:21 77.4 °F 65.5 °F 30.01 in South 9.0 mph 21.0 mph 67 % 0.00 in
14:26 77.4 °F 65.5 °F 30.01 in SSW 10.0 mph 18.0 mph 67 % 0.00 in
14:31 77.2 °F 65.8 °F 30.00 in South 4.0 mph 19.0 mph 68 % 0.00 in
14:36 77.4 °F 66.0 °F 30.00 in South 3.0 mph 19.0 mph 68 % 0.00 in
14:41 77.4 °F 66.0 °F 30.01 in SSW 4.0 mph 19.0 mph 68 % 0.00 in
14:47 77.2 °F 64.9 °F 30.01 in SSW 13.0 mph 16.0 mph 66 % 0.00 in
14:52 76.8 °F 64.9 °F 30.01 in SSW 11.0 mph 21.0 mph 67 % 0.00 in
14:57 76.8 °F 64.9 °F 30.01 in SSW 12.0 mph 21.0 mph 67 % 0.00 in
15:02 76.6 °F 64.9 °F 30.01 in South 10.0 mph 21.0 mph 67 % 0.00 in
15:07 76.6 °F 64.9 °F 30.01 in SSE 6.0 mph 21.0 mph 67 % 0.00 in
15:12 76.6 °F 65.3 °F 30.01 in SW 12.0 mph 21.0 mph 68 % 0.00 in
15:17 76.6 °F 64.9 °F 30.01 in South 12.0 mph 19.0 mph 67 % 0.00 in
15:22 76.6 °F 65.3 °F 30.01 in SE 12.0 mph 21.0 mph 68 % 0.00 in
15:27 76.6 °F 64.9 °F 30.01 in South 9.0 mph 21.0 mph 67 % 0.00 in
15:32 76.5 °F 65.1 °F 30.00 in SW 7.0 mph 21.0 mph 68 % 0.00 in
15:37 76.6 °F 65.3 °F 30.00 in SW 14.0 mph 19.0 mph 68 % 0.00 in
15:42 76.6 °F 65.3 °F 30.01 in SSW 5.0 mph 17.0 mph 68 % 0.00 in
15:47 76.8 °F 65.5 °F 30.01 in SSW 4.0 mph 16.0 mph 68 % 0.00 in
15:52 77.0 °F 65.7 °F 30.01 in SSE 7.0 mph 16.0 mph 68 % 0.00 in
15:57 76.6 °F 65.7 °F 30.02 in SE 7.0 mph 12.0 mph 69 % 0.00 in
16:02 76.3 °F 65.8 °F 30.01 in SW 4.0 mph 14.0 mph 70 % 0.00 in
16:07 76.5 °F 66.0 °F 30.01 in SSE 9.0 mph 14.0 mph 70 % 0.00 in
16:12 76.6 °F 65.7 °F 30.01 in SSW 6.0 mph 14.0 mph 69 % 0.00 in
16:17 76.5 °F 65.5 °F 30.01 in SSE 6.0 mph 13.0 mph 69 % 0.00 in
16:22 75.9 °F 65.5 °F 30.02 in SW 4.0 mph 15.0 mph 70 % 0.00 in
16:27 75.6 °F 65.5 °F 30.02 in South 5.0 mph 15.0 mph 71 % 0.00 in
16:32 75.4 °F 65.3 °F 30.02 in SE 4.0 mph 15.0 mph 71 % 0.00 in
16:37 75.4 °F 65.7 °F 30.02 in SSW 4.0 mph 15.0 mph 72 % 0.00 in
16:42 75.0 °F 65.3 °F 30.02 in SSW 9.0 mph 13.0 mph 72 % 0.00 in
16:47 74.8 °F 65.1 °F 30.02 in SW 7.0 mph 11.0 mph 72 % 0.00 in
16:52 74.7 °F 65.5 °F 30.02 in South 7.0 mph 15.0 mph 73 % 0.00 in
16:57 74.7 °F 65.5 °F 30.02 in South 7.0 mph 15.0 mph 73 % 0.00 in
17:02 74.5 °F 65.7 °F 30.03 in SSE 6.0 mph 15.0 mph 74 % 0.00 in
17:07 74.5 °F 65.7 °F 30.02 in South 6.0 mph 14.0 mph 74 % 0.00 in
17:12 74.3 °F 65.5 °F 30.02 in South 4.0 mph 14.0 mph 74 % 0.00 in
17:17 74.1 °F 65.3 °F 30.03 in SSE 2.0 mph 9.0 mph 74 % 0.00 in
17:22 73.9 °F 65.5 °F 30.03 in SSE 2.0 mph 9.0 mph 75 % 0.00 in
17:27 73.9 °F 65.5 °F 30.03 in South 5.0 mph 8.0 mph 75 % 0.00 in
17:31 73.8 °F 65.3 °F 30.03 in South 5.0 mph 8.0 mph 75 % 0.00 in
17:37 73.6 °F 65.5 °F 30.03 in SE 6.0 mph 9.0 mph 76 % 0.00 in
17:42 73.4 °F 65.3 °F 30.03 in SSE 7.0 mph 9.0 mph 76 % 0.00 in
17:47 73.2 °F 65.7 °F 30.03 in South 6.0 mph 9.0 mph 77 % 0.00 in
17:52 73.2 °F 65.7 °F 30.02 in South 6.0 mph 10.0 mph 77 % 0.00 in
17:57 72.9 °F 65.7 °F 30.02 in SSE 5.0 mph 10.0 mph 78 % 0.00 in
18:02 72.7 °F 65.5 °F 30.02 in SSW 5.0 mph 10.0 mph 78 % 0.00 in
18:07 72.7 °F 65.8 °F 30.01 in SSE 5.0 mph 11.0 mph 79 % 0.00 in
18:12 72.5 °F 65.7 °F 30.02 in SSE 4.0 mph 11.0 mph 79 % 0.00 in
18:17 72.3 °F 65.8 °F 30.02 in South 6.0 mph 11.0 mph 80 % 0.00 in
18:22 72.1 °F 65.7 °F 30.02 in SSW 4.0 mph 10.0 mph 80 % 0.00 in
18:27 72.1 °F 65.7 °F 30.02 in SSE 3.0 mph 11.0 mph 80 % 0.00 in
18:32 72.0 °F 65.5 °F 30.02 in SSE 3.0 mph 11.0 mph 80 % 0.00 in
18:37 72.0 °F 65.8 °F 30.02 in SSW 5.0 mph 11.0 mph 81 % 0.00 in
18:42 72.0 °F 65.8 °F 30.02 in SE 2.0 mph 11.0 mph 81 % 0.00 in
18:47 71.8 °F 65.7 °F 30.02 in SE 5.0 mph 11.0 mph 81 % 0.00 in
18:52 71.8 °F 65.7 °F 30.02 in SSE 6.0 mph 11.0 mph 81 % 0.00 in
18:58 71.8 °F 65.7 °F 30.02 in South 11.0 mph 11.0 mph 81 % 0.00 in
19:03 71.8 °F 66.0 °F 30.02 in South 3.0 mph 13.0 mph 82 % 0.00 in
19:08 71.8 °F 66.0 °F 30.02 in SSW 5.0 mph 13.0 mph 82 % 0.00 in
19:13 71.6 °F 65.8 °F 30.03 in ESE 6.0 mph 13.0 mph 82 % 0.00 in
19:18 71.4 °F 65.7 °F 30.03 in SSW 5.0 mph 13.0 mph 82 % 0.00 in
19:23 71.2 °F 65.5 °F 30.03 in SE 1.0 mph 13.0 mph 82 % 0.00 in
19:28 71.1 °F 65.7 °F 30.03 in SSE 3.0 mph 9.0 mph 83 % 0.00 in
19:33 70.9 °F 65.5 °F 30.03 in South 2.0 mph 8.0 mph 83 % 0.00 in
19:38 70.7 °F 65.7 °F 30.03 in ESE 7.0 mph 7.0 mph 84 % 0.00 in
19:43 70.5 °F 65.5 °F 30.04 in South 4.0 mph 7.0 mph 84 % 0.00 in
19:48 70.3 °F 65.7 °F 30.04 in SSW 3.0 mph 10.0 mph 85 % 0.00 in
19:53 70.3 °F 65.7 °F 30.04 in SSE 1.0 mph 10.0 mph 85 % 0.00 in
19:58 70.2 °F 65.5 °F 30.05 in South 1.0 mph 10.0 mph 85 % 0.00 in
20:03 70.2 °F 65.8 °F 30.05 in SSE 1.0 mph 6.0 mph 86 % 0.00 in
20:08 70.2 °F 65.8 °F 30.05 in ESE 1.0 mph 3.0 mph 86 % 0.00 in
20:13 70.0 °F 65.7 °F 30.06 in South 2.0 mph 3.0 mph 86 % 0.00 in
20:18 69.6 °F 65.3 °F 30.06 in SE 1.0 mph 3.0 mph 86 % 0.00 in
20:23 69.6 °F 65.7 °F 30.06 in SE 2.0 mph 3.0 mph 87 % 0.00 in
20:28 69.4 °F 65.5 °F 30.06 in South 1.0 mph 3.0 mph 87 % 0.00 in
20:33 69.3 °F 65.5 °F 30.06 in South 1.0 mph 3.0 mph 88 % 0.00 in
20:38 69.1 °F 65.3 °F 30.06 in SE 1.0 mph 4.0 mph 88 % 0.00 in
20:43 69.1 °F 65.7 °F 30.06 in SE 1.0 mph 4.0 mph 89 % 0.00 in
20:48 68.9 °F 65.5 °F 30.06 in SSE 2.0 mph 4.0 mph 89 % 0.00 in
20:53 68.7 °F 65.3 °F 30.06 in SSE 1.0 mph 3.0 mph 89 % 0.00 in
20:58 68.9 °F 65.8 °F 30.06 in SSE 2.0 mph 4.0 mph 90 % 0.00 in
20:59 69.1 °F 66.0 °F 30.06 in SE 2.0 mph 4.0 mph 90 % 0.00 in
21:04 69.1 °F 66.0 °F 30.06 in SE 3.0 mph 4.0 mph 90 % 0.00 in
21:09 69.1 °F 66.0 °F 30.06 in SE 2.0 mph 4.0 mph 90 % 0.00 in
21:14 69.1 °F 66.0 °F 30.06 in SSW 3.0 mph 4.0 mph 90 % 0.00 in
21:19 68.9 °F 65.8 °F 30.06 in SE 2.0 mph 5.0 mph 90 % 0.00 in
21:24 68.7 °F 65.7 °F 30.06 in South 3.0 mph 5.0 mph 90 % 0.00 in
21:29 68.7 °F 65.7 °F 30.05 in SE 3.0 mph 5.0 mph 90 % 0.00 in
21:34 68.5 °F 65.8 °F 30.05 in SE 5.0 mph 5.0 mph 91 % 0.00 in
21:39 68.5 °F 65.8 °F 30.05 in South 1.0 mph 7.0 mph 91 % 0.00 in
21:44 68.5 °F 65.8 °F 30.05 in SSE 4.0 mph 7.0 mph 91 % 0.00 in
21:49 68.5 °F 65.8 °F 30.05 in SSE 4.0 mph 7.0 mph 91 % 0.00 in
21:54 68.5 °F 65.8 °F 30.06 in South 2.0 mph 7.0 mph 91 % 0.00 in
21:59 68.5 °F 65.8 °F 30.06 in SSW 4.0 mph 8.0 mph 91 % 0.00 in
22:05 68.4 °F 65.7 °F 30.06 in SSW 4.0 mph 8.0 mph 91 % 0.00 in
22:10 68.5 °F 66.2 °F 30.06 in South 6.0 mph 8.0 mph 92 % 0.00 in
22:15 68.5 °F 66.2 °F 30.06 in SSE 5.0 mph 9.0 mph 92 % 0.00 in
22:20 68.5 °F 65.8 °F 30.06 in South 5.0 mph 9.0 mph 91 % 0.00 in
22:25 68.4 °F 65.7 °F 30.06 in South 3.0 mph 9.0 mph 91 % 0.00 in
22:30 68.4 °F 66.0 °F 30.06 in South 4.0 mph 8.0 mph 92 % 0.00 in
22:35 68.4 °F 66.0 °F 30.06 in South 4.0 mph 7.0 mph 92 % 0.00 in
22:40 68.5 °F 66.2 °F 30.06 in SSW 5.0 mph 10.0 mph 92 % 0.00 in
22:45 68.5 °F 65.8 °F 30.06 in SW 4.0 mph 10.0 mph 91 % 0.00 in
22:50 68.7 °F 66.0 °F 30.06 in SE 6.0 mph 10.0 mph 91 % 0.00 in
22:55 68.7 °F 66.0 °F 30.06 in SSE 6.0 mph 10.0 mph 91 % 0.00 in
23:00 68.7 °F 66.0 °F 30.06 in SSW 5.0 mph 12.0 mph 91 % 0.00 in
23:05 68.7 °F 66.0 °F 30.06 in SE 7.0 mph 12.0 mph 91 % 0.00 in
23:10 68.7 °F 66.0 °F 30.06 in South 3.0 mph 12.0 mph 91 % 0.00 in
23:15 68.5 °F 65.8 °F 30.06 in South 4.0 mph 12.0 mph 91 % 0.00 in
23:20 68.5 °F 65.8 °F 30.06 in SSW 4.0 mph 11.0 mph 91 % 0.00 in
23:25 68.4 °F 66.0 °F 30.06 in SE 5.0 mph 13.0 mph 92 % 0.00 in
23:30 68.4 °F 65.7 °F 30.06 in South 5.0 mph 13.0 mph 91 % 0.00 in
23:35 68.2 °F 65.8 °F 30.06 in South 3.0 mph 13.0 mph 92 % 0.00 in
23:40 68.2 °F 65.8 °F 30.06 in SE 6.0 mph 13.0 mph 92 % 0.00 in
23:45 68.0 °F 65.7 °F 30.05 in South 5.0 mph 10.0 mph 92 % 0.00 in
23:50 67.8 °F 65.5 °F 30.05 in South 5.0 mph 10.0 mph 92 % 0.00 in
23:55 67.8 °F 65.5 °F 30.05 in SE 4.0 mph 10.0 mph 92 % 0.00 in
Spring, Texas: Villages of Bridgestone
Compliments of Weather Underground - 2.75 mb

Script developed by  Jim McMurry - jmcmurry@mwt.net Adapted for the template by  Wim van der Kuil - Leuven-Template.eu

You find our weather info also at:

UK Metoffice

WeatherCloud

Weather Underground

Mid-South Weather Network

AWEKAS

Citizen Weather Observer Program (CWOP)

HAMweather, WeatherForYou, PWS Weather

Equipment we use:

Weather-station
Davis Vantage Vue

Weather-program
Meteohub

Weather-server
Debian 7.9 x86 (Guest)

Provider
DreamHost

Davis Vantage Vue

Meteohub

Debian 7.9 x86 (Guest)

DreamHost